Time;durP1;ratioP1;P1;durP2;ratioP2;P2;SDS_P1;SDS_P2;PMS_P1;PMS_P2;Temp;Humidity;BMP_temperature;BMP_pressure;BME280_temperature;BME280_humidity;BME280_pressure;Samples;Min_cycle;Max_cycle;Signal;HPM_P1;HPM_P2
2023/07/07 00:00:45;;;;;;;1.70;1.48;;;14.00;99.90;;;;;;5052771;28;20045;-87
2023/07/07 00:03:11;;;;;;;2.63;2.00;;;14.80;99.90;;;;;;5043491;28;20261;-87
2023/07/07 00:05:37;;;;;;;2.35;1.63;;;13.90;99.90;;;;;;5053656;28;20032;-86
2023/07/07 00:08:04;;;;;;;4.88;1.92;;;13.90;99.90;;;;;;5033410;28;20048;-85
2023/07/07 00:10:29;;;;;;;2.25;2.05;;;13.80;99.90;;;;;;5056660;28;20048;-87
2023/07/07 00:12:55;;;;;;;4.40;2.35;;;14.00;99.90;;;;;;5040738;28;20045;-88
2023/07/07 00:15:21;;;;;;;4.00;1.73;;;13.80;99.90;;;;;;5059343;28;20051;-85
2023/07/07 00:17:50;;;;;;;5.25;2.03;;;13.80;99.90;;;;;;5038590;28;20041;-86
2023/07/07 00:20:16;;;;;;;2.28;1.55;;;14.20;99.90;;;;;;5059827;28;20499;-88
2023/07/07 00:22:41;;;;;;;3.03;1.80;;;13.80;99.90;;;;;;5058728;28;20492;-85
2023/07/07 00:25:08;;;;;;;3.00;1.80;;;13.70;99.90;;;;;;5034172;28;20074;-86
2023/07/07 00:27:34;;;;;;;3.35;1.60;;;13.70;99.90;;;;;;5042668;28;20040;-85
2023/07/07 00:30:00;;;;;;;3.35;1.88;;;13.70;99.90;;;;;;5052958;28;20443;-88
2023/07/07 00:32:26;;;;;;;4.97;1.88;;;13.70;99.90;;;;;;5028568;28;20037;-86
2023/07/07 00:34:51;;;;;;;4.68;2.05;;;13.70;99.90;;;;;;5030964;28;20045;-86
2023/07/07 00:37:17;;;;;;;3.47;1.77;;;13.70;99.90;;;;;;5049530;28;20418;-86
2023/07/07 00:39:43;;;;;;;4.25;1.50;;;13.70;99.90;;;;;;5031147;28;20047;-87
2023/07/07 00:42:10;;;;;;;2.08;1.70;;;13.60;99.90;;;;;;5048228;28;20048;-88
2023/07/07 00:45:05;;;;;;;6.50;2.40;;;13.60;99.90;;;;;;5034527;28;20560;-88
2023/07/07 00:47:33;;;;;;;2.15;1.95;;;13.60;99.90;;;;;;5057918;28;20603;-87
2023/07/07 00:49:59;;;;;;;4.03;1.85;;;13.60;99.90;;;;;;5042929;28;20496;-89
2023/07/07 00:52:25;;;;;;;2.33;1.77;;;13.50;99.90;;;;;;5043128;28;20485;-85
2023/07/07 00:54:51;;;;;;;1.98;1.58;;;13.50;99.90;;;;;;5056120;28;20523;-86
2023/07/07 00:57:17;;;;;;;2.35;1.83;;;13.50;99.90;;;;;;5060165;28;20361;-86
2023/07/07 00:59:46;;;;;;;2.65;1.98;;;13.50;99.90;;;;;;5064290;28;20084;-87
2023/07/07 01:02:24;;;;;;;2.80;2.00;;;12.30;99.90;;;;;;5045831;28;20041;-85
2023/07/07 01:04:57;;;;;;;2.05;1.80;;;13.60;99.90;;;;;;5034679;28;20048;-86
2023/07/07 01:07:28;;;;;;;1.90;1.80;;;13.40;99.90;;;;;;5055675;28;20097;-87
2023/07/07 01:09:54;;;;;;;2.33;1.90;;;13.50;99.90;;;;;;5048585;28;20049;-88
2023/07/07 01:12:19;;;;;;;4.03;2.10;;;13.40;99.90;;;;;;5053369;28;20046;-86
2023/07/07 01:14:49;;;;;;;3.90;2.25;;;13.30;99.90;;;;;;5031814;28;20052;-86
2023/07/07 01:17:36;;;;;;;3.97;2.25;;;13.30;99.90;;;;;;5047112;28;20040;-87
2023/07/07 01:20:12;;;;;;;2.72;1.80;;;13.30;99.90;;;;;;5039512;28;20468;-87
2023/07/07 01:22:57;;;;;;;3.67;2.25;;;13.30;99.90;;;;;;5054846;28;20554;-87
2023/07/07 01:25:29;;;;;;;;;;;13.30;99.90;;;;;;5034731;28;20444;-87
2023/07/07 01:28:01;;;;;;;4.15;2.55;;;13.20;99.90;;;;;;5026733;28;19927;-86
2023/07/07 01:31:11;;;;;;;3.08;1.73;;;13.50;99.90;;;;;;5062939;28;20500;-87
2023/07/07 01:33:39;;;;;;;6.03;2.17;;;13.30;99.90;;;;;;4989561;28;20052;-86
2023/07/07 01:36:04;;;;;;;5.38;2.42;;;13.20;99.90;;;;;;4989129;28;20097;-87
2023/07/07 01:38:43;;;;;;;2.17;2.00;;;13.20;99.90;;;;;;5023095;28;20052;-86
2023/07/07 01:41:26;;;;;;;3.05;1.92;;;13.20;99.90;;;;;;5042948;28;20045;-88
2023/07/07 01:44:01;;;;;;;2.33;2.13;;;13.10;99.90;;;;;;5063201;28;20132;-87
2023/07/07 01:46:38;;;;;;;;;;;13.10;99.90;;;;;;5055901;28;20307;-86
2023/07/07 01:49:34;;;;;;;2.88;1.67;;;13.10;99.90;;;;;;5046074;28;20394;-87
2023/07/07 01:52:03;;;;;;;2.97;2.13;;;12.20;99.90;;;;;;5033816;28;20136;-85
2023/07/07 01:54:33;;;;;;;3.33;1.95;;;13.10;99.90;;;;;;5059209;28;20037;-86
2023/07/07 01:57:00;;;;;;;2.83;2.28;;;13.40;99.90;;;;;;5059407;28;20045;-86
2023/07/07 01:59:30;;;;;;;3.67;2.45;;;12.90;99.90;;;;;;5038791;28;20095;-88
2023/07/07 02:01:56;;;;;;;2.33;2.08;;;13.00;99.90;;;;;;5041955;28;20040;-87
2023/07/07 02:04:22;;;;;;;3.40;1.95;;;13.00;99.90;;;;;;5040896;28;20064;-89
2023/07/07 02:06:48;;;;;;;4.55;2.45;;;13.20;99.90;;;;;;5039940;28;20042;-87
2023/07/07 02:09:13;;;;;;;4.55;2.08;;;13.00;99.90;;;;;;5039040;28;20486;-86
2023/07/07 02:11:39;;;;;;;3.60;2.35;;;12.90;99.90;;;;;;5039549;28;20564;-86
2023/07/07 02:14:05;;;;;;;4.25;2.60;;;13.40;99.90;;;;;;5032994;28;20482;-86
2023/07/07 02:16:30;;;;;;;3.17;1.80;;;12.90;99.90;;;;;;5041031;28;20098;-88
2023/07/07 02:18:56;;;;;;;6.40;2.60;;;12.90;99.90;;;;;;5034383;28;20088;-87
2023/07/07 02:21:22;;;;;;;6.95;2.53;;;14.10;99.90;;;;;;5023660;28;20049;-86
2023/07/07 02:23:47;;;;;;;2.65;2.45;;;12.90;99.90;;;;;;5015753;28;20053;-87
2023/07/07 02:26:14;;;;;;;3.40;2.10;;;14.30;99.90;;;;;;5041571;28;20067;-87
2023/07/07 02:28:40;;;;;;;4.88;2.88;;;13.00;99.90;;;;;;5036645;28;20088;-87
2023/07/07 02:31:06;;;;;;;3.97;2.90;;;13.00;99.90;;;;;;5011097;28;20100;-87
2023/07/07 02:33:32;;;;;;;4.72;2.78;;;13.00;99.90;;;;;;5043337;28;20037;-87
2023/07/07 02:36:04;;;;;;;5.88;3.85;;;13.00;99.90;;;;;;5037130;28;20100;-86
2023/07/07 02:38:30;;;;;;;3.28;2.85;;;13.00;99.90;;;;;;5022038;28;20041;-88
2023/07/07 02:40:56;;;;;;;6.03;4.00;;;14.20;99.90;;;;;;5034155;28;20401;-86
2023/07/07 02:43:22;;;;;;;5.78;4.30;;;13.00;99.90;;;;;;4999286;28;20481;-87
2023/07/07 02:45:48;;;;;;;7.75;3.97;;;13.00;99.90;;;;;;5042883;28;20057;-89
2023/07/07 02:48:16;;;;;;;5.45;4.68;;;14.60;99.90;;;;;;5031225;28;20034;-86
2023/07/07 02:50:41;;;;;;;6.45;4.63;;;13.00;99.90;;;;;;5026840;28;20057;-85
2023/07/07 02:53:07;;;;;;;5.30;4.80;;;13.10;99.90;;;;;;5036482;28;20042;-87
2023/07/07 02:55:33;;;;;;;6.55;4.35;;;14.50;99.90;;;;;;5020902;28;20046;-88
2023/07/07 02:57:58;;;;;;;7.60;5.47;;;13.00;99.90;;;;;;5050345;28;20057;-87
2023/07/07 03:00:24;;;;;;;6.38;5.22;;;14.30;99.90;;;;;;5057719;28;20599;-88
2023/07/07 03:02:50;;;;;;;10.43;5.18;;;13.00;99.90;;;;;;5037308;28;20037;-86
2023/07/07 03:05:16;;;;;;;11.25;5.40;;;14.20;99.90;;;;;;5059495;28;20048;-85
2023/07/07 03:07:42;;;;;;;7.78;5.97;;;14.40;99.90;;;;;;5039121;28;20047;-86
2023/07/07 03:10:09;;;;;;;7.18;5.68;;;12.90;99.90;;;;;;5031906;28;20041;-87
2023/07/07 03:12:35;;;;;;;10.60;5.63;;;12.90;99.90;;;;;;5055351;28;20037;-86
2023/07/07 03:15:01;;;;;;;7.55;5.85;;;12.90;99.90;;;;;;5038409;28;20040;-87
2023/07/07 03:17:30;;;;;;;7.35;6.53;;;12.90;99.90;;;;;;5060607;28;20032;-87
2023/07/07 03:19:56;;;;;;;6.88;5.30;;;14.10;99.90;;;;;;5035237;28;20044;-85
2023/07/07 03:22:22;;;;;;;7.18;6.13;;;12.90;99.90;;;;;;5060764;28;20040;-87
2023/07/07 03:24:50;;;;;;;7.85;5.60;;;12.90;99.90;;;;;;5058379;28;20261;-87
2023/07/07 03:27:16;;;;;;;8.95;6.75;;;12.90;99.90;;;;;;5057710;28;20041;-88
2023/07/07 03:29:42;;;;;;;13.65;6.40;;;12.90;99.90;;;;;;5030281;28;20160;-87
2023/07/07 03:32:08;;;;;;;10.15;6.65;;;12.90;99.90;;;;;;5054350;28;20057;-87
2023/07/07 03:34:36;;;;;;;7.25;6.13;;;13.00;99.90;;;;;;5054968;28;20388;-85
2023/07/07 03:37:02;;;;;;;6.80;6.07;;;13.10;99.90;;;;;;5057340;28;20052;-85
2023/07/07 03:39:28;;;;;;;7.18;6.47;;;13.00;99.90;;;;;;5052447;28;20044;-86
2023/07/07 03:41:54;;;;;;;10.57;7.13;;;13.30;99.90;;;;;;5056306;28;20044;-86
2023/07/07 03:44:19;;;;;;;7.72;6.88;;;13.00;99.90;;;;;;5021608;28;20076;-88
2023/07/07 03:46:45;;;;;;;8.07;6.88;;;13.00;99.90;;;;;;5063380;28;20075;-86
2023/07/07 03:49:11;;;;;;;11.50;7.70;;;12.90;99.90;;;;;;5051594;28;20048;-86
2023/07/07 03:51:37;;;;;;;10.85;7.38;;;13.00;99.90;;;;;;5038411;28;20045;-87
2023/07/07 03:54:04;;;;;;;12.93;8.43;;;13.00;99.90;;;;;;5057055;28;20464;-86
2023/07/07 03:56:32;;;;;;;10.68;8.38;;;13.00;99.90;;;;;;5048942;28;20504;-86
2023/07/07 03:58:58;;;;;;;9.60;6.93;;;13.00;99.90;;;;;;5034799;28;20080;-86
2023/07/07 04:01:23;;;;;;;12.63;8.35;;;13.00;99.90;;;;;;5058182;28;20080;-86
2023/07/07 04:03:49;;;;;;;9.40;7.88;;;12.30;99.90;;;;;;5042292;28;20041;-85
2023/07/07 04:06:16;;;;;;;11.88;8.65;;;13.30;99.90;;;;;;5057926;28;20469;-86
2023/07/07 04:08:42;;;;;;;11.00;8.70;;;13.20;99.90;;;;;;5053816;28;20036;-86
2023/07/07 04:11:16;;;;;;;9.40;8.43;;;14.40;99.90;;;;;;5030566;28;20399;-87
2023/07/07 04:13:43;;;;;;;13.35;8.55;;;12.10;99.90;;;;;;5056728;28;20095;-84
2023/07/07 04:16:32;;;;;;;10.02;9.02;;;13.20;99.90;;;;;;5040386;28;20057;-85
2023/07/07 04:18:58;;;;;;;11.68;8.13;;;14.40;99.90;;;;;;5060391;28;20052;-86
2023/07/07 04:21:27;;;;;;;16.05;10.15;;;12.70;99.90;;;;;;5042212;28;20053;-86
2023/07/07 04:23:54;;;;;;;13.77;9.88;;;14.60;99.90;;;;;;5062182;28;20381;-86
2023/07/07 04:26:21;;;;;;;13.45;10.20;;;13.20;99.90;;;;;;5064081;28;20586;-88
2023/07/07 04:28:51;;;;;;;14.55;10.35;;;13.20;99.90;;;;;;5045812;28;20095;-86
2023/07/07 04:31:17;;;;;;;13.90;10.63;;;13.30;99.90;;;;;;5028832;28;20484;-86
2023/07/07 04:33:43;;;;;;;17.13;10.45;;;13.30;99.90;;;;;;5053259;28;20041;-87
2023/07/07 04:36:10;;;;;;;15.70;11.90;;;13.30;99.90;;;;;;5056562;28;20460;-87
2023/07/07 04:38:37;;;;;;;17.63;11.55;;;13.40;99.90;;;;;;5056579;28;20120;-86
2023/07/07 04:41:05;;;;;;;12.35;10.93;;;13.40;99.90;;;;;;5042209;28;20064;-86
2023/07/07 04:43:32;;;;;;;18.98;11.48;;;13.40;99.90;;;;;;5046489;28;20032;-86
2023/07/07 04:45:59;;;;;;;15.60;11.38;;;13.40;99.90;;;;;;5029191;28;20052;-87
2023/07/07 04:48:25;;;;;;;18.63;12.65;;;13.40;99.90;;;;;;5061406;28;20088;-87
2023/07/07 04:50:56;;;;;;;14.38;11.63;;;13.50;99.90;;;;;;5070039;28;20048;-86
2023/07/07 04:53:21;;;;;;;17.65;11.68;;;13.50;99.90;;;;;;5049582;28;20549;-88
2023/07/07 04:55:47;;;;;;;15.32;11.90;;;13.50;99.90;;;;;;5070832;28;20052;-88
2023/07/07 04:58:13;;;;;;;12.63;11.38;;;13.60;99.90;;;;;;5064750;28;20060;-87
2023/07/07 05:00:38;;;;;;;17.20;12.25;;;13.80;99.90;;;;;;5050401;28;20061;-86
2023/07/07 05:03:04;;;;;;;15.63;11.90;;;13.60;99.90;;;;;;5054492;28;20072;-86
2023/07/07 05:05:30;;;;;;;15.85;11.68;;;14.00;99.90;;;;;;5053649;28;20051;-87
2023/07/07 05:07:56;;;;;;;16.25;11.80;;;13.70;99.90;;;;;;5045543;28;20058;-86
2023/07/07 05:10:32;;;;;;;17.73;11.85;;;13.80;99.90;;;;;;5047945;28;20087;-85
2023/07/07 05:12:58;;;;;;;14.48;12.40;;;13.80;99.90;;;;;;5061515;28;20041;-87
2023/07/07 05:15:24;;;;;;;19.58;12.55;;;13.80;99.90;;;;;;4698709;28;9999848;-84
2023/07/07 05:17:53;;;;;;;16.02;11.65;;;13.90;99.90;;;;;;5062794;28;20085;-87
2023/07/07 05:20:19;;;;;;;19.85;12.13;;;14.00;99.90;;;;;;5057844;28;20047;-84
2023/07/07 05:22:44;;;;;;;14.57;11.60;;;13.90;99.90;;;;;;5044706;28;20407;-84
2023/07/07 05:25:13;;;;;;;14.40;12.23;;;14.00;99.90;;;;;;5045358;28;20048;-85
2023/07/07 05:27:38;;;;;;;18.73;11.30;;;14.10;99.90;;;;;;5045744;28;20052;-85
2023/07/07 05:30:05;;;;;;;15.98;12.25;;;14.10;99.90;;;;;;5061198;28;20064;-87
2023/07/07 05:32:31;;;;;;;15.18;11.55;;;14.20;99.90;;;;;;5057603;28;20064;-87
2023/07/07 05:34:57;;;;;;;14.10;11.57;;;14.30;99.90;;;;;;5062595;28;20131;-85
2023/07/07 05:37:23;;;;;;;14.30;11.52;;;14.90;99.90;;;;;;5043626;28;20101;-87
2023/07/07 05:39:48;;;;;;;12.55;11.05;;;14.40;99.90;;;;;;5039882;28;20075;-85
2023/07/07 05:42:14;;;;;;;12.75;11.15;;;14.40;99.90;;;;;;5045697;28;20152;-86
2023/07/07 05:44:39;;;;;;;14.88;11.10;;;14.50;99.90;;;;;;5059765;28;20052;-85
2023/07/07 05:47:05;;;;;;;18.80;11.70;;;14.60;99.90;;;;;;5061812;28;20443;-85
2023/07/07 05:49:31;;;;;;;16.25;11.40;;;14.60;99.90;;;;;;5059798;28;20045;-86
2023/07/07 05:51:56;;;;;;;14.32;12.07;;;14.80;99.90;;;;;;5058426;28;20123;-85
2023/07/07 05:54:22;;;;;;;13.30;11.32;;;14.70;99.90;;;;;;5042103;28;20080;-86
2023/07/07 05:56:49;;;;;;;16.23;10.23;;;14.80;99.90;;;;;;5061529;28;20448;-86
2023/07/07 05:59:15;;;;;;;13.77;10.80;;;14.80;99.90;;;;;;5055637;28;20599;-87
2023/07/07 06:01:41;;;;;;;15.25;11.93;;;14.90;99.90;;;;;;5034895;28;20073;-87
2023/07/07 06:04:07;;;;;;;18.27;11.35;;;15.30;99.90;;;;;;5035600;28;20481;-87
2023/07/07 06:06:33;;;;;;;12.15;10.77;;;15.00;99.90;;;;;;5056373;28;20056;-87
2023/07/07 06:08:58;;;;;;;17.42;11.20;;;15.00;99.90;;;;;;5058749;28;20029;-83
2023/07/07 06:11:24;;;;;;;17.58;10.70;;;15.10;99.90;;;;;;5034765;28;20484;-82
2023/07/07 06:13:49;;;;;;;15.13;10.32;;;15.60;99.90;;;;;;5056625;28;20489;-81
2023/07/07 06:16:17;;;;;;;16.02;10.50;;;15.20;99.90;;;;;;5058499;28;20076;-81
2023/07/07 06:18:43;;;;;;;11.05;9.88;;;15.30;99.90;;;;;;5063381;28;20052;-82
2023/07/07 06:21:08;;;;;;;19.23;10.65;;;15.40;99.90;;;;;;5054589;28;20033;-81
2023/07/07 06:23:34;;;;;;;15.75;10.65;;;15.40;99.90;;;;;;5067625;28;20095;-81
2023/07/07 06:26:01;;;;;;;16.10;10.02;;;15.40;99.90;;;;;;5058808;28;20040;-81
2023/07/07 06:28:27;;;;;;;14.75;9.50;;;15.50;99.90;;;;;;5058262;28;20029;-81
2023/07/07 06:30:53;;;;;;;10.45;8.48;;;15.60;99.90;;;;;;5061628;28;20135;-81
2023/07/07 06:33:19;;;;;;;15.55;9.75;;;15.70;99.90;;;;;;5061473;28;20116;-81
2023/07/07 06:35:45;;;;;;;12.27;9.82;;;15.80;99.90;;;;;;5058021;28;20526;-81
2023/07/07 06:38:11;;;;;;;14.15;10.25;;;15.80;99.90;;;;;;5059308;28;20032;-82
2023/07/07 06:40:37;;;;;;;14.57;9.05;;;15.90;99.90;;;;;;5041517;28;20177;-82
2023/07/07 06:43:03;;;;;;;15.65;9.50;;;16.00;99.90;;;;;;5061614;28;20048;-82
2023/07/07 06:45:31;;;;;;;11.07;8.75;;;16.00;99.90;;;;;;5042834;28;20036;-82
2023/07/07 06:47:57;;;;;;;12.32;8.82;;;16.10;99.90;;;;;;5039881;28;20045;-82
2023/07/07 06:50:31;;;;;;;11.60;9.50;;;16.20;99.90;;;;;;5020019;28;20049;-82
2023/07/07 06:52:57;;;;;;;;;;;16.20;99.90;;;;;;5058576;28;20025;-81
2023/07/07 06:55:23;;;;;;;12.88;8.10;;;16.30;99.90;;;;;;5039593;28;19987;-82
2023/07/07 06:57:49;;;;;;;12.10;7.80;;;16.40;99.90;;;;;;5061310;28;20047;-81
2023/07/07 07:00:16;;;;;;;13.25;7.35;;;16.40;99.90;;;;;;5060787;28;20131;-81
2023/07/07 07:02:42;;;;;;;11.75;8.77;;;16.50;99.90;;;;;;5058507;28;20066;-81
2023/07/07 07:05:08;;;;;;;12.85;7.85;;;16.60;99.90;;;;;;5058030;28;20045;-82
2023/07/07 07:07:34;;;;;;;11.07;6.82;;;16.60;99.90;;;;;;5059442;28;20044;-82
2023/07/07 07:10:03;;;;;;;8.77;7.13;;;16.70;99.90;;;;;;5056123;28;20041;-82
2023/07/07 07:12:30;;;;;;;10.88;6.97;;;16.70;99.90;;;;;;5039821;28;20040;-82
2023/07/07 07:14:56;;;;;;;14.00;7.30;;;16.80;99.90;;;;;;5061043;28;20032;-81
2023/07/07 07:17:22;;;;;;;11.23;6.20;;;16.90;99.90;;;;;;5060438;28;20041;-82
2023/07/07 07:19:48;;;;;;;8.02;7.15;;;16.90;99.90;;;;;;5040133;28;20044;-82
2023/07/07 07:22:14;;;;;;;8.18;6.00;;;17.00;99.90;;;;;;5057551;28;20366;-82
2023/07/07 07:24:41;;;;;;;9.52;6.22;;;17.00;99.90;;;;;;5058703;28;20052;-82
2023/07/07 07:27:07;;;;;;;7.22;5.38;;;17.00;99.90;;;;;;5060989;28;20040;-83
2023/07/07 07:29:33;;;;;;;12.35;5.10;;;17.20;99.90;;;;;;5052696;28;20400;-82
2023/07/07 07:31:59;;;;;;;9.95;5.78;;;17.20;99.90;;;;;;5042831;28;20155;-82
2023/07/07 07:34:25;;;;;;;9.70;4.68;;;17.30;99.90;;;;;;5061371;28;20067;-82
2023/07/07 07:36:52;;;;;;;7.00;4.30;;;17.60;99.90;;;;;;5041543;28;20045;-82
2023/07/07 07:39:19;;;;;;;7.20;4.55;;;17.50;99.90;;;;;;5057793;28;20048;-82
2023/07/07 07:41:47;;;;;;;7.95;4.80;;;17.60;99.90;;;;;;5065833;28;20048;-82
2023/07/07 07:44:14;;;;;;;7.80;4.28;;;17.60;99.90;;;;;;5067011;28;20524;-82
2023/07/07 07:46:41;;;;;;;11.23;4.55;;;17.70;99.90;;;;;;5059541;28;20045;-82
2023/07/07 07:49:07;;;;;;;6.45;3.95;;;17.70;99.90;;;;;;5039670;28;20043;-83
2023/07/07 07:51:32;;;;;;;5.25;3.88;;;17.80;99.90;;;;;;5041102;28;20032;-82
2023/07/07 07:53:58;;;;;;;6.03;3.70;;;17.80;99.90;;;;;;5051799;28;20029;-81
2023/07/07 07:56:24;;;;;;;6.95;3.75;;;17.90;99.90;;;;;;5057712;28;20041;-82
2023/07/07 07:58:49;;;;;;;6.70;4.05;;;18.00;99.90;;;;;;5040945;28;20501;-82
2023/07/07 08:01:15;;;;;;;8.80;5.30;;;18.00;99.90;;;;;;5061125;28;20082;-82
2023/07/07 08:03:40;;;;;;;8.15;4.30;;;18.00;99.90;;;;;;5060829;28;20044;-82
2023/07/07 08:06:06;;;;;;;6.10;3.78;;;18.20;99.90;;;;;;5043225;28;20038;-82
2023/07/07 08:08:32;;;;;;;5.38;3.28;;;18.20;99.90;;;;;;5062095;28;20032;-82
2023/07/07 08:10:57;;;;;;;4.82;3.15;;;18.30;99.90;;;;;;5060156;28;20039;-82
2023/07/07 08:13:23;;;;;;;6.95;3.33;;;18.30;99.90;;;;;;5059837;28;20492;-83
2023/07/07 08:15:48;;;;;;;4.10;2.58;;;18.50;99.90;;;;;;5059252;28;20047;-83
2023/07/07 08:18:14;;;;;;;4.05;2.70;;;18.60;99.90;;;;;;5056535;28;20043;-82
2023/07/07 08:20:40;;;;;;;11.52;3.72;;;18.70;99.90;;;;;;5035337;28;20069;-82
2023/07/07 08:23:06;;;;;;;5.38;2.88;;;18.80;99.90;;;;;;5060324;28;20051;-82
2023/07/07 08:25:34;;;;;;;6.85;2.90;;;18.90;99.90;;;;;;5060447;28;20047;-82
2023/07/07 08:28:01;;;;;;;6.05;2.60;;;19.00;99.90;;;;;;5056904;28;20049;-82
2023/07/07 08:30:26;;;;;;;5.38;3.25;;;19.10;99.90;;;;;;5056295;28;20576;-83
2023/07/07 08:32:53;;;;;;;3.92;2.50;;;19.10;99.90;;;;;;5058100;28;20124;-82
2023/07/07 08:35:19;;;;;;;6.22;3.03;;;19.20;99.90;;;;;;5061000;28;20048;-81
2023/07/07 08:37:45;;;;;;;6.38;2.47;;;19.30;99.90;;;;;;5053196;28;20037;-82
2023/07/07 08:40:20;;;;;;;3.80;2.40;;;19.30;99.90;;;;;;5052724;28;20083;-82
2023/07/07 08:42:46;;;;;;;7.85;2.65;;;19.40;99.90;;;;;;5060662;28;20045;-81
2023/07/07 08:45:18;;;;;;;4.40;2.15;;;19.40;99.90;;;;;;5059453;28;20477;-82
2023/07/07 08:48:12;;;;;;;3.90;1.50;;;19.40;99.90;;;;;;5040010;28;20045;-82
2023/07/07 08:50:44;;;;;;;3.30;1.60;;;19.50;99.90;;;;;;5058252;28;20411;-81
2023/07/07 08:53:32;;;;;;;5.78;2.10;;;19.80;99.90;;;;;;5058164;28;20073;-81
2023/07/07 08:56:11;;;;;;;4.00;1.80;;;19.90;99.90;;;;;;5058089;28;20068;-81
2023/07/07 08:58:42;;;;;;;3.65;1.98;;;20.00;99.90;;;;;;5060046;28;20061;-81
2023/07/07 09:01:53;;;;;;;2.88;1.73;;;19.90;99.90;;;;;;5055506;28;20435;-81
2023/07/07 09:04:46;;;;;;;3.75;1.85;;;19.90;99.90;;;;;;5042430;28;20389;-81
2023/07/07 09:07:38;;;;;;;2.92;1.65;;;20.00;99.90;;;;;;5053835;28;20044;-83
2023/07/07 09:10:31;;;;;;;3.63;1.88;;;20.00;99.90;;;;;;5048949;28;20094;-81
2023/07/07 09:13:01;;;;;;;7.10;2.38;;;20.10;99.90;;;;;;5061291;28;20049;-81
2023/07/07 09:15:31;;;;;;;3.75;2.35;;;20.10;99.90;;;;;;5062432;28;20115;-83
2023/07/07 09:18:16;;;;;;;6.57;2.20;;;20.20;99.90;;;;;;5061794;28;20040;-81
2023/07/07 09:20:43;;;;;;;5.05;2.20;;;20.20;99.90;;;;;;5059399;28;20037;-81
2023/07/07 09:23:16;;;;;;;4.78;2.05;;;20.30;99.90;;;;;;5062247;28;20107;-81
2023/07/07 09:25:49;;;;;;;3.92;2.13;;;20.40;99.90;;;;;;5063165;28;20053;-81
2023/07/07 09:28:16;;;;;;;3.63;2.13;;;20.40;99.90;;;;;;5052196;28;20067;-80
2023/07/07 09:30:54;;;;;;;2.55;1.73;;;20.50;99.90;;;;;;5024261;28;20045;-81
2023/07/07 09:33:22;;;;;;;5.13;2.60;;;20.50;99.90;;;;;;5052375;28;20112;-81
2023/07/07 09:36:01;;;;;;;2.63;1.77;;;20.70;99.90;;;;;;5059588;28;20068;-81
2023/07/07 09:38:33;;;;;;;3.90;1.92;;;20.70;99.90;;;;;;5052678;28;20045;-81
2023/07/07 09:41:10;;;;;;;5.30;1.83;;;20.80;99.90;;;;;;5059921;28;20045;-82
2023/07/07 09:43:49;;;;;;;5.60;2.00;;;20.80;99.90;;;;;;5062303;28;20115;-81
2023/07/07 09:46:28;;;;;;;2.22;1.58;;;20.90;99.90;;;;;;5041863;28;20036;-81
2023/07/07 09:49:03;;;;;;;3.25;2.00;;;21.00;99.90;;;;;;5044989;28;20040;-82
2023/07/07 09:51:50;;;;;;;8.75;2.58;;;21.00;99.90;;;;;;5071036;28;20049;-82
2023/07/07 09:54:17;;;;;;;3.28;1.70;;;21.10;99.90;;;;;;5061846;28;20070;-82
2023/07/07 09:56:58;;;;;;;2.92;1.80;;;21.20;99.90;;;;;;5021820;28;20404;-82
2023/07/07 09:59:34;;;;;;;4.68;1.90;;;21.30;99.90;;;;;;5050640;28;20497;-82
2023/07/07 10:02:00;;;;;;;4.60;2.15;;;21.30;99.90;;;;;;5059898;28;20041;-82
2023/07/07 10:04:29;;;;;;;6.30;2.40;;;21.30;99.90;;;;;;5061721;28;20091;-82
2023/07/07 10:07:06;;;;;;;2.22;2.03;;;21.40;99.90;;;;;;5044380;28;20076;-81
2023/07/07 10:09:31;;;;;;;2.63;1.98;;;21.50;99.90;;;;;;5063973;28;20087;-82
2023/07/07 10:11:58;;;;;;;4.40;1.92;;;21.50;99.90;;;;;;5061025;28;20458;-82
2023/07/07 10:14:28;;;;;;;2.65;1.83;;;21.70;99.90;;;;;;5059021;28;20145;-82
2023/07/07 10:17:14;;;;;;;4.30;1.75;;;21.70;99.90;;;;;;5040725;28;20136;-82
2023/07/07 10:19:55;;;;;;;2.28;1.67;;;21.80;99.90;;;;;;5056973;28;20045;-82
2023/07/07 10:22:22;;;;;;;3.55;2.08;;;21.80;99.90;;;;;;5043961;28;20040;-82
2023/07/07 10:24:47;;;;;;;4.90;2.00;;;21.80;99.90;;;;;;5062149;28;20033;-82
2023/07/07 10:27:16;;;;;;;7.93;2.75;;;21.90;99.90;;;;;;5059291;28;20040;-82
2023/07/07 10:29:43;;;;;;;4.65;1.88;;;22.00;99.90;;;;;;5058431;28;20037;-80
2023/07/07 10:32:18;;;;;;;2.47;1.88;;;22.00;99.90;;;;;;5040831;28;20045;-82
2023/07/07 10:34:48;;;;;;;6.47;1.70;;;22.10;99.90;;;;;;5042765;28;20056;-81
2023/07/07 10:37:23;;;;;;;3.13;1.88;;;22.20;99.90;;;;;;5059600;28;20121;-81
2023/07/07 10:39:57;;;;;;;3.97;2.00;;;22.20;99.90;;;;;;5057159;28;20103;-81
2023/07/07 10:42:24;;;;;;;2.65;1.70;;;22.30;99.90;;;;;;5059112;28;20405;-81
2023/07/07 10:44:51;;;;;;;2.20;1.67;;;22.40;99.90;;;;;;5057919;28;20043;-82
2023/07/07 10:47:41;;;;;;;2.20;1.88;;;22.50;99.60;;;;;;5049031;28;20056;-82
2023/07/07 10:50:14;;;;;;;4.20;2.20;;;22.50;99.90;;;;;;5061037;28;20072;-81
2023/07/07 10:53:10;;;;;;;3.10;1.88;;;22.60;99.50;;;;;;5062005;28;20052;-81
2023/07/07 10:55:45;;;;;;;3.53;1.88;;;22.60;99.50;;;;;;5057477;28;20037;-82
2023/07/07 10:58:13;;;;;;;3.83;1.88;;;22.60;99.90;;;;;;5059579;28;20060;-81
2023/07/07 11:01:06;;;;;;;2.95;1.90;;;22.70;99.90;;;;;;5061020;28;20056;-81
2023/07/07 11:03:50;;;;;;;6.82;2.20;;;22.80;99.90;;;;;;5050398;28;20131;-81
2023/07/07 11:06:39;;;;;;;12.13;3.20;;;23.00;99.20;;;;;;5059304;28;20049;-81
2023/07/07 11:09:32;;;;;;;4.28;2.03;;;23.10;99.30;;;;;;5042284;28;20472;-81
2023/07/07 11:12:10;;;;;;;5.50;1.60;;;23.20;99.10;;;;;;5010379;28;20553;-81
2023/07/07 11:14:57;;;;;;;5.53;1.98;;;23.20;98.60;;;;;;5050017;28;20125;-81
2023/07/07 11:17:34;;;;;;;3.90;2.83;;;23.20;99.10;;;;;;5060321;28;20408;-82
2023/07/07 11:20:15;;;;;;;9.52;2.35;;;23.30;98.30;;;;;;5061917;28;20455;-82
2023/07/07 11:22:53;;;;;;;3.40;2.00;;;23.40;98.70;;;;;;5060177;28;20057;-82
2023/07/07 11:25:34;;;;;;;2.63;1.60;;;23.40;97.70;;;;;;5060672;28;20041;-82
2023/07/07 11:28:25;;;;;;;3.55;1.90;;;23.50;98.30;;;;;;5063273;28;20040;-82
2023/07/07 11:31:09;;;;;;;4.32;1.77;;;23.60;98.10;;;;;;5055609;28;20045;-83
2023/07/07 11:33:38;;;;;;;2.88;1.98;;;23.70;98.30;;;;;;5066011;28;20103;-83
2023/07/07 11:36:28;;;;;;;3.65;1.90;;;23.80;97.90;;;;;;5040155;28;20524;-81
2023/07/07 11:39:04;;;;;;;2.92;1.63;;;23.90;97.80;;;;;;5057158;28;20057;-83
2023/07/07 11:41:51;;;;;;;5.72;2.05;;;24.10;98.10;;;;;;5041571;28;20060;-83
2023/07/07 11:44:28;;;;;;;2.38;2.20;;;24.20;97.90;;;;;;5021982;28;20053;-82
2023/07/07 11:46:59;;;;;;;9.55;2.83;;;24.20;97.60;;;;;;5018458;28;20034;-83
2023/07/07 11:49:55;;;;;;;4.70;2.00;;;24.30;97.60;;;;;;5040699;28;20401;-82
2023/07/07 11:52:39;;;;;;;5.78;2.22;;;24.10;96.40;;;;;;5007715;28;20049;-81
2023/07/07 11:55:15;;;;;;;3.03;1.80;;;24.10;97.40;;;;;;5036006;28;20037;-82
2023/07/07 11:58:07;;;;;;;5.05;1.92;;;24.30;97.60;;;;;;5049043;28;20045;-81
2023/07/07 12:00:44;;;;;;;4.68;2.03;;;24.50;97.20;;;;;;5059373;28;20373;-82
2023/07/07 12:03:44;;;;;;;2.20;2.00;;;24.70;96.50;;;;;;5060742;28;20056;-82
2023/07/07 12:06:28;;;;;;;1.83;1.65;;;25.00;96.70;;;;;;5056564;28;20501;-81
2023/07/07 12:09:20;;;;;;;3.90;1.83;;;25.10;96.50;;;;;;5050492;28;20424;-82
2023/07/07 12:11:59;;;;;;;1.77;1.63;;;25.10;96.30;;;;;;5027137;28;20061;-82
2023/07/07 12:14:52;;;;;;;3.95;2.33;;;25.00;95.70;;;;;;5040115;28;20033;-81
2023/07/07 12:17:22;;;;;;;4.10;2.05;;;24.90;95.80;;;;;;5059832;28;20051;-82
2023/07/07 12:19:56;;;;;;;4.57;2.13;;;25.00;95.90;;;;;;5055976;28;20120;-82
2023/07/07 12:22:29;;;;;;;5.75;2.05;;;25.00;95.00;;;;;;5058733;28;20480;-82
2023/07/07 12:25:17;;;;;;;2.27;1.93;;;25.10;95.50;;;;;;5063752;28;20296;-82
2023/07/07 12:27:46;;;;;;;3.40;2.13;;;25.20;95.30;;;;;;5048364;28;20099;-81
2023/07/07 12:30:32;;;;;;;3.53;2.03;;;25.10;95.00;;;;;;5055745;28;20094;-81
2023/07/07 12:32:59;;;;;;;6.00;1.75;;;25.00;93.50;;;;;;5050354;28;20115;-82
2023/07/07 12:35:31;;;;;;;2.80;2.13;;;25.00;93.90;;;;;;5057758;28;20044;-82
2023/07/07 12:38:27;;;;;;;2.13;1.67;;;25.00;93.60;;;;;;5060079;28;20083;-82
2023/07/07 12:41:02;;;;;;;3.58;2.10;;;25.30;93.50;;;;;;5055757;28;20055;-81
2023/07/07 12:43:43;;;;;;;2.75;1.90;;;25.50;92.90;;;;;;5061600;28;20068;-83
2023/07/07 12:46:29;;;;;;;3.00;1.98;;;25.70;92.60;;;;;;5063473;28;20045;-82
2023/07/07 12:49:21;;;;;;;6.53;1.83;;;25.90;92.80;;;;;;5060452;28;20041;-81
2023/07/07 12:51:55;;;;;;;3.30;1.90;;;25.90;92.40;;;;;;5041658;28;20057;-81
2023/07/07 12:54:35;;;;;;;4.40;2.35;;;26.10;92.00;;;;;;5059725;28;20264;-81
2023/07/07 12:57:04;;;;;;;2.08;1.67;;;26.20;92.40;;;;;;5060515;28;20032;-81
2023/07/07 12:59:38;;;;;;;3.20;1.95;;;26.30;91.60;;;;;;5021718;28;20060;-82
2023/07/07 13:02:24;;;;;;;3.15;2.15;;;26.30;91.70;;;;;;5042738;28;20083;-81